createdAt,value
2022-11-24T00:10:55.512Z,7.5
2022-11-24T00:26:07.841Z,10.1
2022-11-24T00:41:17.025Z,6.1
2022-11-24T00:56:26.422Z,9
2022-11-24T01:11:36.172Z,5.3
2022-11-24T01:26:45.581Z,5.1
2022-11-24T01:41:55.404Z,7.1
2022-11-24T01:57:07.706Z,8.5
2022-11-24T02:12:17.328Z,8.6
2022-11-24T02:27:26.579Z,8
2022-11-24T02:42:35.625Z,7.3
2022-11-24T02:57:45.058Z,7.1
2022-11-24T03:12:54.901Z,7.8
2022-11-24T03:28:04.522Z,12
2022-11-24T03:43:14.228Z,11
2022-11-24T03:58:24.096Z,11.4
2022-11-24T04:13:33.761Z,9.2
2022-11-24T04:28:43.225Z,13.8
2022-11-24T04:43:53.021Z,13.5
2022-11-24T04:59:09.010Z,14.5
2022-11-24T05:14:18.268Z,20.2
2022-11-24T05:29:27.974Z,9.8
2022-11-24T05:44:37.443Z,22.1
2022-11-24T05:59:46.986Z,11.9
2022-11-24T06:14:56.193Z,7.3
2022-11-24T06:30:07.852Z,19.1
2022-11-24T06:45:17.456Z,13.7
2022-11-24T07:00:27.097Z,16.1
2022-11-24T07:15:36.696Z,13.6
2022-11-24T07:30:46.399Z,17
2022-11-24T07:45:57.488Z,15.2
2022-11-24T08:01:08.214Z,16.4
2022-11-24T08:16:18.024Z,14.2
2022-11-24T08:31:28.229Z,10.4
2022-11-24T08:46:39.171Z,13.7
2022-11-24T09:01:50.053Z,17.7
2022-11-24T09:17:00.780Z,13.9
2022-11-24T09:32:10.873Z,16.9
2022-11-24T09:47:20.430Z,13.6
2022-11-24T10:02:29.882Z,17.2
2022-11-24T10:17:39.035Z,16.5
2022-11-24T10:32:48.792Z,12.7
2022-11-24T10:47:58.638Z,18.1
2022-11-24T11:03:08.763Z,19.9
2022-11-24T11:18:18.212Z,11.5
2022-11-24T11:34:15.949Z,13.7
2022-11-24T11:49:45.811Z,11.6
2022-11-24T12:04:55.526Z,12.9
2022-11-24T12:20:06.200Z,18
2022-11-24T12:35:16.145Z,8.9
2022-11-24T12:50:25.469Z,7.6
2022-11-24T13:05:34.893Z,9.9
2022-11-24T13:20:44.138Z,12.1
2022-11-24T13:35:53.558Z,8.4
2022-11-24T13:51:03.063Z,9.9
2022-11-24T14:06:12.508Z,5.7
2022-11-24T14:21:23.182Z,7
2022-11-24T14:36:32.506Z,9.9
2022-11-24T14:51:42.138Z,14.1
2022-11-24T15:06:51.475Z,5.8
2022-11-24T15:22:01.258Z,14.2
2022-11-24T15:37:11.072Z,11.4
2022-11-24T15:52:20.700Z,13.5
2022-11-24T16:07:30.385Z,15.8
2022-11-24T16:22:40.058Z,15.3
2022-11-24T16:37:49.404Z,13.5
2022-11-24T16:52:58.514Z,17.9
2022-11-24T17:08:08.922Z,17.7
2022-11-24T17:23:18.772Z,17.2
2022-11-24T17:38:27.952Z,33.4
2022-11-24T17:53:37.387Z,26.4
2022-11-24T18:08:46.793Z,24.7
2022-11-24T18:23:55.914Z,24.9
2022-11-24T18:39:08.345Z,18.7
2022-11-24T18:54:17.833Z,16.8
2022-11-24T19:09:27.420Z,23.4
2022-11-24T19:24:37.738Z,21.6
2022-11-24T19:39:46.918Z,31.6
2022-11-24T19:54:56.061Z,20.6
2022-11-24T20:10:08.444Z,20.2
2022-11-24T20:25:18.240Z,26.6
2022-11-24T20:40:27.342Z,26.5
2022-11-24T20:55:36.474Z,23.3
2022-11-24T21:10:45.918Z,23.1
2022-11-24T21:25:55.543Z,25.2
2022-11-24T21:41:04.996Z,35.2
2022-11-24T21:56:14.271Z,34.7
2022-11-24T22:11:24.092Z,22.1
2022-11-24T22:26:33.645Z,20.4
2022-11-24T22:41:42.828Z,28
2022-11-24T22:56:51.810Z,18.5
2022-11-24T23:12:01.482Z,16.9
2022-11-24T23:27:10.389Z,15.2
2022-11-24T23:42:19.371Z,18.3
2022-11-24T23:57:28.389Z,12.6
